sensor_id;sensor_type;location;lat;lon;timestamp;P1;durP1;ratioP1;P2;durP2;ratioP2
51298;SDS011;37382;45.192;9.790;2022-12-16T05:13:44;31.48;;;22.13;;
51298;SDS011;37382;45.192;9.790;2022-12-16T05:16:30;29.30;;;21.35;;
51298;SDS011;37382;45.192;9.790;2022-12-16T05:19:18;31.67;;;22.55;;
51298;SDS011;37382;45.192;9.790;2022-12-16T05:22:04;32.92;;;22.55;;
51298;SDS011;37382;45.192;9.790;2022-12-16T05:24:50;30.63;;;22.73;;
51298;SDS011;37382;45.192;9.790;2022-12-16T05:27:36;34.30;;;24.08;;
51298;SDS011;37382;45.192;9.790;2022-12-16T05:30:22;34.22;;;24.52;;
51298;SDS011;37382;45.192;9.790;2022-12-16T05:33:08;34.95;;;23.90;;
51298;SDS011;37382;45.192;9.790;2022-12-16T05:35:55;33.50;;;23.55;;
51298;SDS011;37382;45.192;9.790;2022-12-16T05:38:52;35.88;;;24.65;;
51298;SDS011;37382;45.192;9.790;2022-12-16T05:41:39;34.20;;;24.50;;
51298;SDS011;37382;45.192;9.790;2022-12-16T05:44:25;34.17;;;24.40;;
51298;SDS011;37382;45.192;9.790;2022-12-16T05:47:11;33.75;;;24.35;;
51298;SDS011;37382;45.192;9.790;2022-12-16T05:49:59;37.95;;;25.48;;
51298;SDS011;37382;45.192;9.790;2022-12-16T05:52:51;40.38;;;26.25;;
51298;SDS011;37382;45.192;9.790;2022-12-16T05:55:41;39.30;;;27.23;;
51298;SDS011;37382;45.192;9.790;2022-12-16T05:58:28;33.38;;;24.45;;
51298;SDS011;37382;45.192;9.790;2022-12-16T06:01:14;37.80;;;25.55;;
51298;SDS011;37382;45.192;9.790;2022-12-16T06:04:00;35.35;;;24.45;;
51298;SDS011;37382;45.192;9.790;2022-12-16T06:06:46;39.15;;;26.40;;
51298;SDS011;37382;45.192;9.790;2022-12-16T06:09:32;38.47;;;25.77;;
51298;SDS011;37382;45.192;9.790;2022-12-16T06:12:22;35.90;;;26.33;;
51298;SDS011;37382;45.192;9.790;2022-12-16T06:15:09;36.90;;;26.05;;
51298;SDS011;37382;45.192;9.790;2022-12-16T06:17:55;36.55;;;25.92;;
51298;SDS011;37382;45.192;9.790;2022-12-16T06:20:41;38.72;;;26.33;;
51298;SDS011;37382;45.192;9.790;2022-12-16T06:23:27;36.13;;;24.40;;
51298;SDS011;37382;45.192;9.790;2022-12-16T06:26:14;35.88;;;24.45;;
51298;SDS011;37382;45.192;9.790;2022-12-16T06:29:00;35.17;;;24.77;;
51298;SDS011;37382;45.192;9.790;2022-12-16T06:31:46;35.13;;;25.23;;
51298;SDS011;37382;45.192;9.790;2022-12-16T06:34:32;38.17;;;26.13;;
51298;SDS011;37382;45.192;9.790;2022-12-16T06:37:18;36.85;;;26.90;;
51298;SDS011;37382;45.192;9.790;2022-12-16T06:40:06;37.28;;;25.17;;
51298;SDS011;37382;45.192;9.790;2022-12-16T06:42:52;36.97;;;25.08;;
51298;SDS011;37382;45.192;9.790;2022-12-16T06:45:38;40.67;;;26.83;;
51298;SDS011;37382;45.192;9.790;2022-12-16T06:48:24;37.50;;;25.25;;
51298;SDS011;37382;45.192;9.790;2022-12-16T06:51:10;38.03;;;24.98;;
51298;SDS011;37382;45.192;9.790;2022-12-16T06:53:57;37.20;;;25.52;;
51298;SDS011;37382;45.192;9.790;2022-12-16T06:56:43;38.13;;;24.77;;
51298;SDS011;37382;45.192;9.790;2022-12-16T06:59:29;39.33;;;26.23;;
51298;SDS011;37382;45.192;9.790;2022-12-16T07:02:15;39.33;;;25.95;;
51298;SDS011;37382;45.192;9.790;2022-12-16T07:05:01;35.45;;;24.92;;
51298;SDS011;37382;45.192;9.790;2022-12-16T07:07:48;38.83;;;25.38;;
51298;SDS011;37382;45.192;9.790;2022-12-16T07:10:36;50.55;;;30.35;;
51298;SDS011;37382;45.192;9.790;2022-12-16T07:13:39;38.22;;;26.02;;
51298;SDS011;37382;45.192;9.790;2022-12-16T07:16:25;40.30;;;27.30;;
51298;SDS011;37382;45.192;9.790;2022-12-16T07:19:11;61.17;;;37.10;;
51298;SDS011;37382;45.192;9.790;2022-12-16T07:21:57;39.03;;;27.27;;
51298;SDS011;37382;45.192;9.790;2022-12-16T07:24:43;52.75;;;34.40;;
51298;SDS011;37382;45.192;9.790;2022-12-16T07:27:29;51.83;;;33.80;;
51298;SDS011;37382;45.192;9.790;2022-12-16T07:30:15;47.20;;;30.83;;
51298;SDS011;37382;45.192;9.790;2022-12-16T07:33:08;42.88;;;28.45;;
51298;SDS011;37382;45.192;9.790;2022-12-16T07:35:55;43.05;;;29.35;;
51298;SDS011;37382;45.192;9.790;2022-12-16T07:38:41;35.30;;;25.98;;
51298;SDS011;37382;45.192;9.790;2022-12-16T07:41:27;42.15;;;26.90;;
51298;SDS011;37382;45.192;9.790;2022-12-16T07:44:13;34.10;;;25.92;;
51298;SDS011;37382;45.192;9.790;2022-12-16T07:47:00;40.95;;;26.50;;
51298;SDS011;37382;45.192;9.790;2022-12-16T07:49:46;35.33;;;25.38;;
51298;SDS011;37382;45.192;9.790;2022-12-16T07:52:32;38.85;;;26.52;;
51298;SDS011;37382;45.192;9.790;2022-12-16T07:55:21;37.97;;;25.35;;
51298;SDS011;37382;45.192;9.790;2022-12-16T07:58:08;34.40;;;24.95;;
51298;SDS011;37382;45.192;9.790;2022-12-16T08:00:54;36.35;;;25.17;;
51298;SDS011;37382;45.192;9.790;2022-12-16T08:03:40;37.13;;;26.30;;
51298;SDS011;37382;45.192;9.790;2022-12-16T08:06:26;38.75;;;26.15;;
51298;SDS011;37382;45.192;9.790;2022-12-16T08:09:13;36.40;;;25.63;;
51298;SDS011;37382;45.192;9.790;2022-12-16T08:11:58;40.45;;;26.52;;
51298;SDS011;37382;45.192;9.790;2022-12-16T08:14:44;38.17;;;26.85;;
51298;SDS011;37382;45.192;9.790;2022-12-16T08:17:35;34.83;;;25.42;;
51298;SDS011;37382;45.192;9.790;2022-12-16T08:20:35;37.72;;;25.98;;
51298;SDS011;37382;45.192;9.790;2022-12-16T08:23:21;37.20;;;25.65;;
51298;SDS011;37382;45.192;9.790;2022-12-16T08:26:08;36.10;;;26.33;;
51298;SDS011;37382;45.192;9.790;2022-12-16T08:28:54;36.63;;;24.63;;
51298;SDS011;37382;45.192;9.790;2022-12-16T08:32:01;36.20;;;25.05;;
51298;SDS011;37382;45.192;9.790;2022-12-16T08:34:47;33.88;;;24.77;;
51298;SDS011;37382;45.192;9.790;2022-12-16T08:37:34;33.42;;;23.65;;
51298;SDS011;37382;45.192;9.790;2022-12-16T08:40:21;31.48;;;23.30;;
51298;SDS011;37382;45.192;9.790;2022-12-16T08:43:07;31.27;;;23.10;;
51298;SDS011;37382;45.192;9.790;2022-12-16T08:45:53;32.58;;;23.98;;
51298;SDS011;37382;45.192;9.790;2022-12-16T08:48:40;34.50;;;23.35;;
51298;SDS011;37382;45.192;9.790;2022-12-16T08:51:26;33.28;;;22.67;;
51298;SDS011;37382;45.192;9.790;2022-12-16T08:54:12;33.20;;;23.80;;
51298;SDS011;37382;45.192;9.790;2022-12-16T08:56:58;35.20;;;25.33;;
51298;SDS011;37382;45.192;9.790;2022-12-16T08:59:44;34.92;;;24.83;;
51298;SDS011;37382;45.192;9.790;2022-12-16T09:02:30;41.85;;;27.08;;
51298;SDS011;37382;45.192;9.790;2022-12-16T09:05:17;41.65;;;28.55;;
51298;SDS011;37382;45.192;9.790;2022-12-16T09:08:03;41.28;;;27.52;;
51298;SDS011;37382;45.192;9.790;2022-12-16T09:10:49;37.92;;;26.80;;
51298;SDS011;37382;45.192;9.790;2022-12-16T09:13:36;44.38;;;26.98;;
51298;SDS011;37382;45.192;9.790;2022-12-16T09:16:23;44.53;;;28.40;;
51298;SDS011;37382;45.192;9.790;2022-12-16T09:19:09;43.45;;;27.40;;
51298;SDS011;37382;45.192;9.790;2022-12-16T09:21:55;43.20;;;28.52;;
51298;SDS011;37382;45.192;9.790;2022-12-16T09:24:41;49.55;;;30.65;;
51298;SDS011;37382;45.192;9.790;2022-12-16T09:27:27;56.78;;;32.35;;
51298;SDS011;37382;45.192;9.790;2022-12-16T09:30:14;47.92;;;28.48;;
51298;SDS011;37382;45.192;9.790;2022-12-16T09:33:00;47.25;;;29.55;;
51298;SDS011;37382;45.192;9.790;2022-12-16T09:35:48;50.38;;;28.73;;
51298;SDS011;37382;45.192;9.790;2022-12-16T09:38:34;47.25;;;27.60;;
51298;SDS011;37382;45.192;9.790;2022-12-16T09:47:12;42.03;;;26.38;;
51298;SDS011;37382;45.192;9.790;2022-12-16T09:50:21;48.83;;;28.85;;
51298;SDS011;37382;45.192;9.790;2022-12-16T09:53:14;50.08;;;29.58;;
51298;SDS011;37382;45.192;9.790;2022-12-16T09:56:04;48.05;;;28.75;;
51298;SDS011;37382;45.192;9.790;2022-12-16T09:59:00;46.85;;;28.38;;
51298;SDS011;37382;45.192;9.790;2022-12-16T10:01:49;45.65;;;28.02;;
51298;SDS011;37382;45.192;9.790;2022-12-16T10:04:37;41.17;;;26.10;;
51298;SDS011;37382;45.192;9.790;2022-12-16T10:07:23;33.08;;;23.20;;
51298;SDS011;37382;45.192;9.790;2022-12-16T10:13:12;35.78;;;23.15;;
51298;SDS011;37382;45.192;9.790;2022-12-16T10:22:54;36.15;;;22.77;;
51298;SDS011;37382;45.192;9.790;2022-12-16T10:25:49;41.33;;;25.30;;
51298;SDS011;37382;45.192;9.790;2022-12-16T10:28:43;35.30;;;24.15;;
51298;SDS011;37382;45.192;9.790;2022-12-16T10:31:31;35.05;;;22.92;;
51298;SDS011;37382;45.192;9.790;2022-12-16T10:34:20;37.20;;;23.10;;
51298;SDS011;37382;45.192;9.790;2022-12-16T10:37:15;35.35;;;22.80;;
51298;SDS011;37382;45.192;9.790;2022-12-16T10:40:16;35.22;;;23.65;;
51298;SDS011;37382;45.192;9.790;2022-12-16T10:43:10;38.28;;;24.00;;
51298;SDS011;37382;45.192;9.790;2022-12-16T10:46:04;38.83;;;26.00;;
51298;SDS011;37382;45.192;9.790;2022-12-16T10:49:12;38.85;;;24.45;;
51298;SDS011;37382;45.192;9.790;2022-12-16T10:52:00;37.38;;;24.25;;
51298;SDS011;37382;45.192;9.790;2022-12-16T10:58:16;43.83;;;26.45;;
51298;SDS011;37382;45.192;9.790;2022-12-16T11:01:26;41.30;;;26.23;;
51298;SDS011;37382;45.192;9.790;2022-12-16T11:13:30;43.13;;;26.27;;
51298;SDS011;37382;45.192;9.790;2022-12-16T11:16:25;43.45;;;27.85;;
51298;SDS011;37382;45.192;9.790;2022-12-16T11:19:20;43.85;;;26.75;;
51298;SDS011;37382;45.192;9.790;2022-12-16T11:25:23;42.40;;;27.73;;
51298;SDS011;37382;45.192;9.790;2022-12-16T11:28:15;45.40;;;28.02;;
51298;SDS011;37382;45.192;9.790;2022-12-16T11:31:07;45.40;;;29.33;;
51298;SDS011;37382;45.192;9.790;2022-12-16T11:33:59;46.38;;;30.27;;
51298;SDS011;37382;45.192;9.790;2022-12-16T11:36:48;50.03;;;29.70;;
51298;SDS011;37382;45.192;9.790;2022-12-16T11:39:37;47.70;;;28.83;;
51298;SDS011;37382;45.192;9.790;2022-12-16T11:42:27;46.78;;;29.77;;
51298;SDS011;37382;45.192;9.790;2022-12-16T11:45:18;47.95;;;30.85;;
51298;SDS011;37382;45.192;9.790;2022-12-16T11:48:07;45.42;;;29.45;;
51298;SDS011;37382;45.192;9.790;2022-12-16T11:51:01;48.72;;;30.30;;
51298;SDS011;37382;45.192;9.790;2022-12-16T11:54:01;47.78;;;30.60;;
51298;SDS011;37382;45.192;9.790;2022-12-16T11:57:02;51.05;;;30.50;;
51298;SDS011;37382;45.192;9.790;2022-12-16T12:00:00;51.53;;;31.05;;
51298;SDS011;37382;45.192;9.790;2022-12-16T12:02:54;50.65;;;32.15;;
51298;SDS011;37382;45.192;9.790;2022-12-16T12:21:33;60.35;;;34.92;;
51298;SDS011;37382;45.192;9.790;2022-12-16T12:24:36;63.05;;;34.85;;
51298;SDS011;37382;45.192;9.790;2022-12-16T12:27:35;59.22;;;34.92;;
51298;SDS011;37382;45.192;9.790;2022-12-16T12:30:27;62.78;;;35.88;;
51298;SDS011;37382;45.192;9.790;2022-12-16T12:36:48;61.28;;;34.75;;
51298;SDS011;37382;45.192;9.790;2022-12-16T12:39:52;64.97;;;35.97;;
51298;SDS011;37382;45.192;9.790;2022-12-16T12:49:08;56.55;;;34.75;;
51298;SDS011;37382;45.192;9.790;2022-12-16T12:52:08;56.70;;;33.83;;
51298;SDS011;37382;45.192;9.790;2022-12-16T12:54:59;52.10;;;32.13;;
51298;SDS011;37382;45.192;9.790;2022-12-16T12:57:54;46.25;;;28.73;;
51298;SDS011;37382;45.192;9.790;2022-12-16T13:00:45;43.05;;;27.83;;
51298;SDS011;37382;45.192;9.790;2022-12-16T13:06:49;44.28;;;28.27;;
51298;SDS011;37382;45.192;9.790;2022-12-16T13:09:37;47.65;;;28.70;;
51298;SDS011;37382;45.192;9.790;2022-12-16T13:15:31;50.80;;;31.27;;
51298;SDS011;37382;45.192;9.790;2022-12-16T13:18:24;47.45;;;28.63;;
51298;SDS011;37382;45.192;9.790;2022-12-16T13:27:43;44.35;;;28.10;;
51298;SDS011;37382;45.192;9.790;2022-12-16T13:30:34;49.88;;;28.92;;
51298;SDS011;37382;45.192;9.790;2022-12-16T13:36:11;61.85;;;33.97;;
51298;SDS011;37382;45.192;9.790;2022-12-16T13:39:16;65.55;;;36.65;;
51298;SDS011;37382;45.192;9.790;2022-12-16T13:42:04;51.53;;;31.50;;
51298;SDS011;37382;45.192;9.790;2022-12-16T13:53:28;52.28;;;31.30;;
51298;SDS011;37382;45.192;9.790;2022-12-16T13:56:26;52.00;;;30.05;;
51298;SDS011;37382;45.192;9.790;2022-12-16T13:59:20;57.85;;;31.48;;
51298;SDS011;37382;45.192;9.790;2022-12-16T14:05:18;53.35;;;29.77;;
51298;SDS011;37382;45.192;9.790;2022-12-16T14:08:13;53.75;;;33.35;;
51298;SDS011;37382;45.192;9.790;2022-12-16T14:11:03;55.13;;;32.03;;
51298;SDS011;37382;45.192;9.790;2022-12-16T14:17:03;60.85;;;34.72;;
51298;SDS011;37382;45.192;9.790;2022-12-16T14:20:33;60.22;;;33.15;;
51298;SDS011;37382;45.192;9.790;2022-12-16T14:23:31;62.50;;;33.88;;
51298;SDS011;37382;45.192;9.790;2022-12-16T14:26:26;58.17;;;33.63;;
51298;SDS011;37382;45.192;9.790;2022-12-16T14:35:21;59.58;;;35.05;;
51298;SDS011;37382;45.192;9.790;2022-12-16T14:38:30;63.53;;;37.00;;
51298;SDS011;37382;45.192;9.790;2022-12-16T14:41:23;64.40;;;36.67;;
51298;SDS011;37382;45.192;9.790;2022-12-16T14:44:23;68.13;;;37.15;;
51298;SDS011;37382;45.192;9.790;2022-12-16T14:47:14;64.10;;;36.22;;
51298;SDS011;37382;45.192;9.790;2022-12-16T14:50:02;69.78;;;37.45;;
51298;SDS011;37382;45.192;9.790;2022-12-16T14:53:05;69.88;;;37.15;;
51298;SDS011;37382;45.192;9.790;2022-12-16T14:56:18;67.32;;;37.10;;
51298;SDS011;37382;45.192;9.790;2022-12-16T15:01:54;71.05;;;38.72;;
51298;SDS011;37382;45.192;9.790;2022-12-16T15:04:43;67.60;;;36.45;;
51298;SDS011;37382;45.192;9.790;2022-12-16T15:07:32;72.85;;;37.28;;
51298;SDS011;37382;45.192;9.790;2022-12-16T15:10:41;75.60;;;39.03;;
51298;SDS011;37382;45.192;9.790;2022-12-16T15:13:27;69.50;;;37.50;;
51298;SDS011;37382;45.192;9.790;2022-12-16T15:16:16;76.72;;;39.28;;
51298;SDS011;37382;45.192;9.790;2022-12-16T15:19:09;73.03;;;38.92;;
51298;SDS011;37382;45.192;9.790;2022-12-16T15:22:04;78.50;;;40.30;;
51298;SDS011;37382;45.192;9.790;2022-12-16T15:24:52;80.45;;;40.75;;
51298;SDS011;37382;45.192;9.790;2022-12-16T15:27:38;80.28;;;40.42;;
51298;SDS011;37382;45.192;9.790;2022-12-16T15:30:40;73.70;;;39.95;;
51298;SDS011;37382;45.192;9.790;2022-12-16T15:33:37;71.40;;;38.60;;
51298;SDS011;37382;45.192;9.790;2022-12-16T15:39:17;68.65;;;37.25;;
51298;SDS011;37382;45.192;9.790;2022-12-16T15:42:23;69.57;;;35.40;;
51298;SDS011;37382;45.192;9.790;2022-12-16T15:45:17;75.10;;;37.28;;
51298;SDS011;37382;45.192;9.790;2022-12-16T15:48:16;69.35;;;36.28;;
51298;SDS011;37382;45.192;9.790;2022-12-16T15:51:22;71.38;;;36.92;;
51298;SDS011;37382;45.192;9.790;2022-12-16T15:54:18;64.88;;;35.58;;
51298;SDS011;37382;45.192;9.790;2022-12-16T16:09:14;67.28;;;36.00;;
51298;SDS011;37382;45.192;9.790;2022-12-16T16:12:15;72.28;;;37.88;;
51298;SDS011;37382;45.192;9.790;2022-12-16T16:15:04;66.80;;;35.38;;
51298;SDS011;37382;45.192;9.790;2022-12-16T16:17:54;74.07;;;36.60;;
51298;SDS011;37382;45.192;9.790;2022-12-16T16:20:41;81.18;;;40.53;;
51298;SDS011;37382;45.192;9.790;2022-12-16T16:23:28;78.70;;;39.35;;
51298;SDS011;37382;45.192;9.790;2022-12-16T16:26:15;77.03;;;39.03;;
51298;SDS011;37382;45.192;9.790;2022-12-16T16:29:03;72.43;;;37.15;;
51298;SDS011;37382;45.192;9.790;2022-12-16T16:31:50;75.85;;;36.30;;
51298;SDS011;37382;45.192;9.790;2022-12-16T16:34:37;77.18;;;36.33;;
51298;SDS011;37382;45.192;9.790;2022-12-16T16:37:23;81.47;;;37.58;;
51298;SDS011;37382;45.192;9.790;2022-12-16T16:40:18;72.22;;;33.85;;
51298;SDS011;37382;45.192;9.790;2022-12-16T16:43:26;75.63;;;36.22;;
51298;SDS011;37382;45.192;9.790;2022-12-16T16:49:09;75.53;;;36.28;;
51298;SDS011;37382;45.192;9.790;2022-12-16T16:51:56;79.47;;;37.22;;
51298;SDS011;37382;45.192;9.790;2022-12-16T16:54:43;83.35;;;38.40;;
51298;SDS011;37382;45.192;9.790;2022-12-16T16:57:30;81.65;;;40.78;;
51298;SDS011;37382;45.192;9.790;2022-12-16T17:00:18;82.43;;;39.22;;
51298;SDS011;37382;45.192;9.790;2022-12-16T17:03:04;73.72;;;36.40;;
51298;SDS011;37382;45.192;9.790;2022-12-16T17:05:51;77.63;;;37.92;;
51298;SDS011;37382;45.192;9.790;2022-12-16T17:08:37;74.93;;;34.67;;
51298;SDS011;37382;45.192;9.790;2022-12-16T17:11:23;72.35;;;33.42;;
51298;SDS011;37382;45.192;9.790;2022-12-16T17:14:13;68.00;;;33.15;;
51298;SDS011;37382;45.192;9.790;2022-12-16T17:17:02;64.40;;;33.17;;
51298;SDS011;37382;45.192;9.790;2022-12-16T17:19:49;63.63;;;32.88;;
51298;SDS011;37382;45.192;9.790;2022-12-16T17:22:35;67.20;;;34.17;;
51298;SDS011;37382;45.192;9.790;2022-12-16T17:25:22;58.13;;;30.48;;
51298;SDS011;37382;45.192;9.790;2022-12-16T17:28:08;53.25;;;28.08;;
51298;SDS011;37382;45.192;9.790;2022-12-16T17:30:55;53.72;;;30.20;;
51298;SDS011;37382;45.192;9.790;2022-12-16T17:33:41;61.10;;;33.03;;
51298;SDS011;37382;45.192;9.790;2022-12-16T17:36:27;54.00;;;29.70;;
51298;SDS011;37382;45.192;9.790;2022-12-16T17:39:13;52.00;;;29.45;;
51298;SDS011;37382;45.192;9.790;2022-12-16T17:42:00;46.22;;;27.38;;
51298;SDS011;37382;45.192;9.790;2022-12-16T17:44:46;40.50;;;24.50;;
51298;SDS011;37382;45.192;9.790;2022-12-16T17:47:33;48.35;;;25.55;;
51298;SDS011;37382;45.192;9.790;2022-12-16T17:50:18;46.58;;;26.63;;
51298;SDS011;37382;45.192;9.790;2022-12-16T17:53:05;47.47;;;25.25;;
51298;SDS011;37382;45.192;9.790;2022-12-16T17:55:51;40.40;;;23.25;;
51298;SDS011;37382;45.192;9.790;2022-12-16T17:58:37;43.33;;;24.08;;
51298;SDS011;37382;45.192;9.790;2022-12-16T18:01:23;44.75;;;25.42;;
51298;SDS011;37382;45.192;9.790;2022-12-16T18:04:10;41.65;;;24.73;;
51298;SDS011;37382;45.192;9.790;2022-12-16T18:06:56;41.35;;;24.75;;
51298;SDS011;37382;45.192;9.790;2022-12-16T18:09:42;45.58;;;25.45;;
51298;SDS011;37382;45.192;9.790;2022-12-16T18:12:27;49.65;;;29.10;;
51298;SDS011;37382;45.192;9.790;2022-12-16T18:15:15;39.17;;;24.15;;
51298;SDS011;37382;45.192;9.790;2022-12-16T18:18:01;42.67;;;25.35;;
51298;SDS011;37382;45.192;9.790;2022-12-16T18:20:47;44.28;;;25.85;;
51298;SDS011;37382;45.192;9.790;2022-12-16T18:23:33;49.63;;;27.75;;
51298;SDS011;37382;45.192;9.790;2022-12-16T18:26:19;62.92;;;34.33;;
51298;SDS011;37382;45.192;9.790;2022-12-16T18:29:06;66.82;;;36.40;;
51298;SDS011;37382;45.192;9.790;2022-12-16T18:31:52;58.03;;;31.60;;
51298;SDS011;37382;45.192;9.790;2022-12-16T18:34:38;45.13;;;25.30;;
51298;SDS011;37382;45.192;9.790;2022-12-16T18:37:25;41.13;;;22.52;;
51298;SDS011;37382;45.192;9.790;2022-12-16T18:40:11;42.75;;;22.73;;
51298;SDS011;37382;45.192;9.790;2022-12-16T18:42:57;43.80;;;24.48;;
51298;SDS011;37382;45.192;9.790;2022-12-16T18:45:49;43.63;;;24.10;;
51298;SDS011;37382;45.192;9.790;2022-12-16T18:48:36;47.55;;;25.55;;
51298;SDS011;37382;45.192;9.790;2022-12-16T18:51:23;49.40;;;26.55;;
51298;SDS011;37382;45.192;9.790;2022-12-16T18:54:09;48.53;;;25.83;;
51298;SDS011;37382;45.192;9.790;2022-12-16T18:56:55;48.72;;;26.90;;
51298;SDS011;37382;45.192;9.790;2022-12-16T18:59:41;45.38;;;25.88;;
51298;SDS011;37382;45.192;9.790;2022-12-16T19:02:27;52.00;;;27.67;;
51298;SDS011;37382;45.192;9.790;2022-12-16T19:05:14;46.80;;;26.63;;
51298;SDS011;37382;45.192;9.790;2022-12-16T19:08:00;47.45;;;27.58;;
51298;SDS011;37382;45.192;9.790;2022-12-16T19:10:47;45.83;;;25.38;;
51298;SDS011;37382;45.192;9.790;2022-12-16T19:13:33;52.78;;;27.52;;
51298;SDS011;37382;45.192;9.790;2022-12-16T19:16:19;48.97;;;28.38;;
51298;SDS011;37382;45.192;9.790;2022-12-16T19:19:05;54.00;;;29.38;;
51298;SDS011;37382;45.192;9.790;2022-12-16T19:21:51;52.22;;;30.52;;
51298;SDS011;37382;45.192;9.790;2022-12-16T19:24:37;47.70;;;28.35;;
51298;SDS011;37382;45.192;9.790;2022-12-16T19:27:23;49.88;;;28.35;;
51298;SDS011;37382;45.192;9.790;2022-12-16T19:30:09;50.25;;;28.10;;
51298;SDS011;37382;45.192;9.790;2022-12-16T19:32:55;51.53;;;29.65;;
51298;SDS011;37382;45.192;9.790;2022-12-16T19:35:41;55.28;;;31.65;;
51298;SDS011;37382;45.192;9.790;2022-12-16T19:38:29;64.20;;;39.58;;
51298;SDS011;37382;45.192;9.790;2022-12-16T19:41:16;57.08;;;33.38;;
51298;SDS011;37382;45.192;9.790;2022-12-16T19:44:03;81.15;;;49.85;;
51298;SDS011;37382;45.192;9.790;2022-12-16T19:46:49;55.28;;;29.38;;
51298;SDS011;37382;45.192;9.790;2022-12-16T19:49:35;50.60;;;29.13;;
51298;SDS011;37382;45.192;9.790;2022-12-16T19:52:22;58.85;;;31.42;;
51298;SDS011;37382;45.192;9.790;2022-12-16T19:55:08;52.78;;;29.25;;
51298;SDS011;37382;45.192;9.790;2022-12-16T19:57:55;52.65;;;29.80;;
51298;SDS011;37382;45.192;9.790;2022-12-16T20:00:41;61.08;;;33.58;;
51298;SDS011;37382;45.192;9.790;2022-12-16T20:03:28;54.22;;;29.38;;
51298;SDS011;37382;45.192;9.790;2022-12-16T20:06:16;45.55;;;28.15;;
51298;SDS011;37382;45.192;9.790;2022-12-16T20:09:01;51.17;;;28.98;;
51298;SDS011;37382;45.192;9.790;2022-12-16T20:11:47;54.22;;;28.60;;
51298;SDS011;37382;45.192;9.790;2022-12-16T20:14:34;53.35;;;29.80;;
51298;SDS011;37382;45.192;9.790;2022-12-16T20:17:22;58.15;;;31.73;;
51298;SDS011;37382;45.192;9.790;2022-12-16T20:20:09;73.45;;;40.30;;
51298;SDS011;37382;45.192;9.790;2022-12-16T20:22:56;65.50;;;36.20;;
51298;SDS011;37382;45.192;9.790;2022-12-16T20:25:42;52.28;;;30.52;;
51298;SDS011;37382;45.192;9.790;2022-12-16T20:28:29;52.80;;;28.92;;
51298;SDS011;37382;45.192;9.790;2022-12-16T20:31:15;52.47;;;28.98;;
51298;SDS011;37382;45.192;9.790;2022-12-16T20:34:02;53.58;;;29.75;;
51298;SDS011;37382;45.192;9.790;2022-12-16T20:36:48;56.35;;;30.92;;
51298;SDS011;37382;45.192;9.790;2022-12-16T20:39:35;52.10;;;29.85;;
51298;SDS011;37382;45.192;9.790;2022-12-16T20:42:42;58.15;;;32.25;;
51298;SDS011;37382;45.192;9.790;2022-12-16T20:45:29;55.42;;;30.58;;
51298;SDS011;37382;45.192;9.790;2022-12-16T20:48:15;59.88;;;31.95;;
51298;SDS011;37382;45.192;9.790;2022-12-16T20:51:02;55.40;;;32.58;;
51298;SDS011;37382;45.192;9.790;2022-12-16T20:53:53;59.65;;;33.15;;
51298;SDS011;37382;45.192;9.790;2022-12-16T20:56:39;53.65;;;31.42;;
51298;SDS011;37382;45.192;9.790;2022-12-16T20:59:26;53.45;;;31.75;;
51298;SDS011;37382;45.192;9.790;2022-12-16T21:02:13;55.00;;;32.88;;
51298;SDS011;37382;45.192;9.790;2022-12-16T21:05:01;53.03;;;32.08;;
51298;SDS011;37382;45.192;9.790;2022-12-16T21:07:48;60.08;;;32.95;;
51298;SDS011;37382;45.192;9.790;2022-12-16T21:10:35;57.05;;;32.90;;
51298;SDS011;37382;45.192;9.790;2022-12-16T21:13:22;62.10;;;33.30;;
51298;SDS011;37382;45.192;9.790;2022-12-16T21:16:09;49.58;;;30.80;;
51298;SDS011;37382;45.192;9.790;2022-12-16T21:18:55;55.30;;;33.50;;
51298;SDS011;37382;45.192;9.790;2022-12-16T21:21:41;50.08;;;30.17;;
51298;SDS011;37382;45.192;9.790;2022-12-16T21:24:28;54.00;;;32.38;;
51298;SDS011;37382;45.192;9.790;2022-12-16T21:27:15;51.30;;;31.30;;
51298;SDS011;37382;45.192;9.790;2022-12-16T21:30:02;50.55;;;30.63;;
51298;SDS011;37382;45.192;9.790;2022-12-16T21:32:50;50.38;;;30.95;;
51298;SDS011;37382;45.192;9.790;2022-12-16T21:35:36;46.85;;;30.00;;
51298;SDS011;37382;45.192;9.790;2022-12-16T21:38:23;48.45;;;30.58;;
51298;SDS011;37382;45.192;9.790;2022-12-16T21:41:08;45.88;;;29.05;;
51298;SDS011;37382;45.192;9.790;2022-12-16T21:43:55;41.45;;;27.65;;
51298;SDS011;37382;45.192;9.790;2022-12-16T21:46:41;46.28;;;27.20;;
51298;SDS011;37382;45.192;9.790;2022-12-16T21:49:27;48.05;;;29.00;;
51298;SDS011;37382;45.192;9.790;2022-12-16T21:52:14;44.38;;;28.55;;
51298;SDS011;37382;45.192;9.790;2022-12-16T21:55:00;45.33;;;28.75;;
51298;SDS011;37382;45.192;9.790;2022-12-16T21:57:46;44.55;;;27.88;;
51298;SDS011;37382;45.192;9.790;2022-12-16T22:00:33;46.97;;;27.77;;
51298;SDS011;37382;45.192;9.790;2022-12-16T22:03:32;43.80;;;29.25;;
51298;SDS011;37382;45.192;9.790;2022-12-16T22:06:19;42.85;;;28.92;;
51298;SDS011;37382;45.192;9.790;2022-12-16T22:09:11;46.67;;;29.23;;
51298;SDS011;37382;45.192;9.790;2022-12-16T22:11:57;44.22;;;28.63;;
51298;SDS011;37382;45.192;9.790;2022-12-16T22:14:44;49.30;;;29.75;;
51298;SDS011;37382;45.192;9.790;2022-12-16T22:17:31;44.33;;;29.00;;
51298;SDS011;37382;45.192;9.790;2022-12-16T22:20:25;43.20;;;26.85;;
51298;SDS011;37382;45.192;9.790;2022-12-16T22:23:15;42.53;;;27.02;;
51298;SDS011;37382;45.192;9.790;2022-12-16T22:26:03;43.30;;;27.42;;
51298;SDS011;37382;45.192;9.790;2022-12-16T22:28:53;43.28;;;29.08;;
51298;SDS011;37382;45.192;9.790;2022-12-16T22:31:42;41.92;;;27.15;;
51298;SDS011;37382;45.192;9.790;2022-12-16T22:34:30;49.17;;;29.73;;
51298;SDS011;37382;45.192;9.790;2022-12-16T22:37:16;45.20;;;28.00;;
51298;SDS011;37382;45.192;9.790;2022-12-16T22:40:02;41.95;;;27.92;;
51298;SDS011;37382;45.192;9.790;2022-12-16T22:42:50;46.78;;;24.88;;
51298;SDS011;37382;45.192;9.790;2022-12-16T22:45:37;35.95;;;24.00;;
51298;SDS011;37382;45.192;9.790;2022-12-16T22:48:23;44.80;;;28.42;;
51298;SDS011;37382;45.192;9.790;2022-12-16T22:51:12;44.25;;;27.38;;
51298;SDS011;37382;45.192;9.790;2022-12-16T22:54:00;38.35;;;24.23;;
51298;SDS011;37382;45.192;9.790;2022-12-16T22:56:46;42.60;;;25.20;;
51298;SDS011;37382;45.192;9.790;2022-12-16T22:59:32;41.17;;;26.92;;
51298;SDS011;37382;45.192;9.790;2022-12-16T23:02:17;44.22;;;26.58;;
51298;SDS011;37382;45.192;9.790;2022-12-16T23:05:04;41.20;;;25.00;;
51298;SDS011;37382;45.192;9.790;2022-12-16T23:07:54;37.35;;;25.48;;
51298;SDS011;37382;45.192;9.790;2022-12-16T23:10:40;38.47;;;24.77;;
51298;SDS011;37382;45.192;9.790;2022-12-16T23:13:26;37.25;;;25.02;;
51298;SDS011;37382;45.192;9.790;2022-12-16T23:16:12;33.88;;;24.38;;
51298;SDS011;37382;45.192;9.790;2022-12-16T23:19:00;33.22;;;24.00;;
51298;SDS011;37382;45.192;9.790;2022-12-16T23:21:46;33.65;;;24.02;;
51298;SDS011;37382;45.192;9.790;2022-12-16T23:24:32;35.13;;;23.77;;
51298;SDS011;37382;45.192;9.790;2022-12-16T23:27:18;34.10;;;24.70;;
51298;SDS011;37382;45.192;9.790;2022-12-16T23:30:05;33.28;;;22.65;;
51298;SDS011;37382;45.192;9.790;2022-12-16T23:32:58;36.28;;;23.90;;
51298;SDS011;37382;45.192;9.790;2022-12-16T23:35:46;32.25;;;22.98;;